Terminal Aerodrome Forecast
Issued by NWS Indianapolis, IN

Home | Current Version | Previous Version | Text Only | Print | Product List | Glossary On
Versions: 1 2 3 4 5 6 7 8 9 10 11 12 13 14 15 16 17 18 19 20 21 22 23 24 25 26 27
023
FTUS43 KIND 051247 AAA
TAFIND
TAF AMD
KIND 051247Z 0513/0618 36010KT P6SM BKN015 OVC025
     FM051400 36012KT P6SM OVC025
     FM051630 36014G22KT P6SM BKN035
     FM052300 35012KT P6SM SCT040
     FM060300 34009KT P6SM SKC
     FM060700 33006KT P6SM SKC=

USA.gov is the U.S. government's official web portal to all federal, state and local government web resources and services.